createdAt,value
2023-10-05T00:01:57.779Z,1.60
2023-10-05T00:04:28.090Z,1.33
2023-10-05T00:06:56.120Z,1.23
2023-10-05T00:09:25.901Z,1.33
2023-10-05T00:11:56.078Z,1.50
2023-10-05T00:14:25.473Z,1.20
2023-10-05T00:16:56.262Z,1.20
2023-10-05T00:19:26.226Z,1.52
2023-10-05T00:21:57.775Z,1.23
2023-10-05T00:24:31.053Z,1.27
2023-10-05T00:26:59.667Z,1.20
2023-10-05T00:29:30.090Z,1.50
2023-10-05T00:32:00.508Z,1.23
2023-10-05T00:34:29.779Z,1.30
2023-10-05T00:37:00.158Z,1.23
2023-10-05T00:39:31.281Z,1.45
2023-10-05T00:42:09.957Z,1.40
2023-10-05T00:44:40.762Z,1.38
2023-10-05T00:47:08.640Z,1.08
2023-10-05T00:49:46.881Z,1.45
2023-10-05T00:52:16.616Z,1.65
2023-10-05T00:54:49.901Z,1.05
2023-10-05T00:57:20.917Z,1.48
2023-10-05T00:59:58.852Z,1.20
2023-10-05T01:02:27.745Z,0.93
2023-10-05T01:04:57.484Z,1.10
2023-10-05T01:07:50.846Z,1.20
2023-10-05T01:10:34.094Z,1.10
2023-10-05T01:13:02.561Z,1.10
2023-10-05T01:15:34.513Z,0.95
2023-10-05T01:18:02.478Z,1.20
2023-10-05T01:20:32.117Z,1.08
2023-10-05T01:23:06.034Z,1.20
2023-10-05T01:25:33.867Z,1.20
2023-10-05T01:28:02.442Z,1.00
2023-10-05T01:30:30.181Z,1.20
2023-10-05T01:32:58.047Z,1.40
2023-10-05T01:35:27.250Z,1.17
2023-10-05T01:37:55.183Z,1.10
2023-10-05T01:40:26.606Z,1.10
2023-10-05T01:42:54.422Z,1.30
2023-10-05T01:45:26.455Z,1.20
2023-10-05T01:47:55.463Z,1.00
2023-10-05T01:50:24.543Z,1.08
2023-10-05T01:52:57.688Z,1.23
2023-10-05T01:55:28.999Z,1.23
2023-10-05T01:57:57.387Z,1.17
2023-10-05T02:00:26.560Z,1.10
2023-10-05T02:02:57.073Z,1.20
2023-10-05T02:05:25.435Z,1.35
2023-10-05T02:07:53.110Z,1.20
2023-10-05T02:10:22.059Z,1.10
2023-10-05T02:12:55.713Z,1.05
2023-10-05T02:15:29.774Z,1.00
2023-10-05T02:17:59.695Z,1.25
2023-10-05T02:20:45.711Z,0.98
2023-10-05T02:23:27.153Z,1.05
2023-10-05T02:25:59.476Z,1.10
2023-10-05T02:28:28.777Z,1.00
2023-10-05T02:31:01.075Z,0.85
2023-10-05T02:33:32.812Z,1.10
2023-10-05T02:36:11.470Z,1.13
2023-10-05T02:38:40.874Z,0.98
2023-10-05T02:41:09.542Z,1.10
2023-10-05T02:43:41.585Z,1.08
2023-10-05T02:46:13.392Z,1.27
2023-10-05T02:48:42.843Z,1.20
2023-10-05T02:51:14.651Z,0.93
2023-10-05T02:53:43.301Z,1.10
2023-10-05T02:56:24.002Z,0.98
2023-10-05T02:58:55.941Z,1.10
2023-10-05T03:01:24.607Z,0.90
2023-10-05T03:03:53.466Z,0.90
2023-10-05T03:06:23.855Z,1.10
2023-10-05T03:08:55.352Z,0.98
2023-10-05T03:11:23.182Z,0.90
2023-10-05T03:13:51.842Z,1.10
2023-10-05T03:16:22.998Z,1.02
2023-10-05T03:18:50.786Z,0.90
2023-10-05T03:21:19.391Z,0.70
2023-10-05T03:23:48.218Z,1.10
2023-10-05T03:26:19.131Z,0.93
2023-10-05T03:28:47.545Z,0.80
2023-10-05T03:31:20.429Z,0.95
2023-10-05T03:33:53.184Z,0.93
2023-10-05T03:36:21.391Z,1.00
2023-10-05T03:38:56.993Z,0.70
2023-10-05T03:41:27.263Z,1.02
2023-10-05T03:43:56.821Z,0.93
2023-10-05T03:46:26.269Z,1.00
2023-10-05T03:49:01.528Z,1.00
2023-10-05T03:51:30.480Z,0.85
2023-10-05T03:53:58.202Z,1.08
2023-10-05T03:56:30.007Z,0.88
2023-10-05T03:59:01.638Z,0.95
2023-10-05T04:01:29.718Z,0.88
2023-10-05T04:04:01.324Z,0.95
2023-10-05T04:06:29.638Z,0.90
2023-10-05T04:08:59.103Z,0.60
2023-10-05T04:11:27.838Z,0.95
2023-10-05T04:13:56.120Z,1.00
2023-10-05T04:16:27.999Z,0.70
2023-10-05T04:18:55.822Z,1.20
2023-10-05T04:21:24.917Z,1.00
2023-10-05T04:23:53.933Z,1.00
2023-10-05T04:26:22.974Z,0.77
2023-10-05T04:28:58.921Z,0.95
2023-10-05T04:31:27.446Z,0.93
2023-10-05T04:33:57.251Z,1.05
2023-10-05T04:36:27.096Z,0.70
2023-10-05T04:38:56.208Z,0.90
2023-10-05T04:41:30.058Z,0.73
2023-10-05T04:43:58.619Z,0.88
2023-10-05T04:46:26.514Z,0.70
2023-10-05T04:49:09.113Z,0.85
2023-10-05T04:51:40.164Z,0.93
2023-10-05T04:54:11.877Z,0.70
2023-10-05T04:56:44.659Z,0.90
2023-10-05T04:59:38.401Z,0.80
2023-10-05T05:02:19.522Z,0.70
2023-10-05T05:05:27.651Z,1.08
2023-10-05T05:07:56.688Z,0.88
2023-10-05T05:10:24.599Z,0.75
2023-10-05T05:12:52.266Z,0.90
2023-10-05T05:15:20.071Z,0.85
2023-10-05T05:17:47.786Z,0.85
2023-10-05T05:20:16.787Z,0.80
2023-10-05T05:22:47.949Z,0.90
2023-10-05T05:25:21.074Z,1.00
2023-10-05T05:27:49.417Z,0.90
2023-10-05T05:30:25.612Z,0.70
2023-10-05T05:32:55.717Z,0.95
2023-10-05T05:35:23.539Z,0.80
2023-10-05T05:37:51.312Z,1.02
2023-10-05T05:40:20.400Z,1.00
2023-10-05T05:42:48.131Z,0.80
2023-10-05T05:45:18.001Z,0.68
2023-10-05T05:47:47.327Z,0.80
2023-10-05T05:50:19.009Z,0.80
2023-10-05T05:52:48.998Z,0.75
2023-10-05T05:55:21.848Z,0.90
2023-10-05T05:57:52.674Z,0.70
2023-10-05T06:00:21.066Z,0.70
2023-10-05T06:02:49.032Z,0.80
2023-10-05T06:05:17.351Z,0.98
2023-10-05T06:07:45.379Z,0.70
2023-10-05T06:10:16.352Z,0.80
2023-10-05T06:12:48.494Z,0.90
2023-10-05T06:15:17.514Z,0.82
2023-10-05T06:17:45.935Z,0.68
2023-10-05T06:20:16.218Z,0.70
2023-10-05T06:22:46.071Z,1.00
2023-10-05T06:25:16.121Z,0.88
2023-10-05T06:27:44.804Z,0.80
2023-10-05T06:30:12.983Z,0.70
2023-10-05T06:32:43.999Z,0.88
2023-10-05T06:35:13.359Z,0.80
2023-10-05T06:37:42.516Z,0.90
2023-10-05T06:40:13.862Z,0.68
2023-10-05T06:42:43.256Z,0.70
2023-10-05T06:45:13.055Z,0.65
2023-10-05T06:47:42.290Z,0.98
2023-10-05T06:50:11.794Z,0.70
2023-10-05T06:52:40.870Z,0.93
2023-10-05T06:55:09.845Z,0.88
2023-10-05T06:57:38.642Z,0.77
2023-10-05T07:00:13.007Z,0.85
2023-10-05T07:02:43.161Z,0.60
2023-10-05T07:05:12.509Z,0.68
2023-10-05T07:07:42.085Z,0.70
2023-10-05T07:10:11.265Z,0.50
2023-10-05T07:12:41.034Z,0.70
2023-10-05T07:15:09.812Z,0.63
2023-10-05T07:17:38.635Z,0.70
2023-10-05T07:20:12.660Z,0.85
2023-10-05T07:22:41.359Z,0.60
2023-10-05T07:25:12.002Z,0.80
2023-10-05T07:27:40.963Z,0.77
2023-10-05T07:30:10.819Z,0.70
2023-10-05T07:32:39.122Z,0.70
2023-10-05T07:35:10.974Z,0.63
2023-10-05T07:37:38.722Z,0.60
2023-10-05T07:40:08.977Z,0.90
2023-10-05T07:42:38.702Z,0.80
2023-10-05T07:45:08.751Z,0.77
2023-10-05T07:47:43.083Z,0.73
2023-10-05T07:50:12.687Z,0.80
2023-10-05T07:52:40.483Z,0.82
2023-10-05T07:55:09.468Z,0.93
2023-10-05T07:57:37.332Z,0.80
2023-10-05T08:00:07.419Z,0.60
2023-10-05T08:02:35.287Z,0.60
2023-10-05T08:05:03.331Z,0.77
2023-10-05T08:07:32.404Z,0.70
2023-10-05T08:10:00.763Z,0.63
2023-10-05T08:12:28.770Z,0.80
2023-10-05T08:14:56.772Z,0.70
2023-10-05T08:17:25.672Z,0.70
2023-10-05T08:19:53.891Z,0.60
2023-10-05T08:22:23.651Z,0.88
2023-10-05T08:24:54.114Z,0.70
2023-10-05T08:27:22.329Z,0.73
2023-10-05T08:29:49.973Z,0.80
2023-10-05T08:32:18.096Z,0.82
2023-10-05T08:34:46.616Z,5.30
2023-10-05T08:37:21.944Z,2.80
2023-10-05T08:39:52.540Z,1.80
2023-10-05T08:42:21.834Z,1.50
2023-10-05T08:44:50.876Z,1.33
2023-10-05T08:47:20.412Z,1.10
2023-10-05T08:49:48.343Z,0.98
2023-10-05T08:52:20.866Z,1.20
2023-10-05T08:54:49.565Z,0.90
2023-10-05T08:57:18.499Z,1.50
2023-10-05T08:59:47.987Z,1.02
2023-10-05T09:02:19.907Z,0.90
2023-10-05T09:04:52.376Z,1.25
2023-10-05T09:07:35.917Z,1.20
2023-10-05T09:10:06.609Z,1.00
2023-10-05T09:12:38.853Z,1.00
2023-10-05T09:15:16.427Z,1.27
2023-10-05T09:18:07.567Z,0.90
2023-10-05T09:20:37.666Z,1.00
2023-10-05T09:23:07.366Z,0.60
2023-10-05T09:25:38.638Z,0.80
2023-10-05T09:28:14.441Z,0.93
2023-10-05T09:30:56.816Z,0.90
2023-10-05T09:33:27.858Z,1.17
2023-10-05T09:35:57.475Z,1.10
2023-10-05T09:38:25.605Z,0.90
2023-10-05T09:40:55.703Z,0.90
2023-10-05T09:43:24.582Z,0.90
2023-10-05T09:45:54.403Z,0.80
2023-10-05T09:48:23.860Z,1.20
2023-10-05T09:50:53.826Z,0.90
2023-10-05T09:53:21.546Z,1.02
2023-10-05T09:55:54.521Z,1.00
2023-10-05T09:58:23.082Z,0.98
2023-10-05T10:00:51.768Z,0.90
2023-10-05T10:03:24.620Z,0.85
2023-10-05T10:06:00.907Z,0.95
2023-10-05T10:08:30.739Z,1.10
2023-10-05T10:11:07.737Z,0.95
2023-10-05T10:13:39.362Z,1.00
2023-10-05T10:16:22.830Z,0.98
2023-10-05T10:18:55.883Z,1.20
2023-10-05T10:21:28.064Z,1.20
2023-10-05T10:24:02.703Z,1.15
2023-10-05T10:26:30.628Z,1.00
2023-10-05T10:29:09.641Z,1.10
2023-10-05T10:31:44.057Z,1.27
2023-10-05T10:34:20.761Z,1.50
2023-10-05T10:36:53.334Z,1.35
2023-10-05T10:39:25.936Z,1.25
2023-10-05T10:42:06.003Z,1.20
2023-10-05T10:44:52.921Z,1.40
2023-10-05T10:47:23.634Z,1.42
2023-10-05T10:50:11.620Z,1.95
2023-10-05T10:52:39.665Z,1.70
2023-10-05T10:55:15.482Z,1.70
2023-10-05T10:57:47.953Z,1.40
2023-10-05T11:00:34.630Z,1.55
2023-10-05T11:03:10.774Z,1.88
2023-10-05T11:05:40.453Z,3.78
2023-10-05T11:08:10.416Z,3.60
2023-10-05T11:10:38.328Z,2.13
2023-10-05T11:13:16.214Z,2.83
2023-10-05T11:15:59.319Z,2.80
2023-10-05T11:18:28.148Z,3.25
2023-10-05T11:21:06.774Z,3.70
2023-10-05T11:23:44.686Z,2.72
2023-10-05T11:26:20.041Z,2.67
2023-10-05T11:28:50.296Z,2.33
2023-10-05T11:31:27.808Z,2.55
2023-10-05T11:34:36.701Z,2.25
2023-10-05T11:36:56.281Z,1.90
2023-10-05T11:39:28.536Z,2.00
2023-10-05T11:41:58.289Z,2.20
2023-10-05T11:44:26.610Z,1.85
2023-10-05T11:46:56.258Z,2.10
2023-10-05T11:49:32.056Z,1.70
2023-10-05T11:52:03.975Z,1.75
2023-10-05T11:54:31.926Z,1.98
2023-10-05T11:57:02.611Z,1.98
2023-10-05T11:59:32.286Z,1.60
2023-10-05T12:02:00.368Z,2.00
2023-10-05T12:04:28.641Z,1.80
2023-10-05T12:06:59.886Z,2.05
2023-10-05T12:09:33.002Z,2.63
2023-10-05T12:12:02.586Z,2.50
2023-10-05T12:14:30.362Z,2.20
2023-10-05T12:17:00.733Z,2.00
2023-10-05T12:19:30.109Z,2.38
2023-10-05T12:22:00.561Z,2.25
2023-10-05T12:24:31.341Z,2.17
2023-10-05T12:27:01.804Z,1.90
2023-10-05T12:29:31.032Z,2.22
2023-10-05T12:32:05.087Z,2.08
2023-10-05T12:34:33.171Z,1.70
2023-10-05T12:37:01.909Z,1.80
2023-10-05T12:39:34.277Z,2.50
2023-10-05T12:42:02.603Z,2.50
2023-10-05T12:44:33.307Z,2.20
2023-10-05T12:47:01.433Z,2.42
2023-10-05T12:49:29.266Z,2.50
2023-10-05T12:51:57.463Z,2.58
2023-10-05T12:54:30.385Z,2.80
2023-10-05T12:57:21.023Z,2.35
2023-10-05T12:59:50.964Z,1.98
2023-10-05T13:02:19.908Z,2.17
2023-10-05T13:04:47.735Z,2.40
2023-10-05T13:07:19.273Z,2.10
2023-10-05T13:09:48.653Z,2.63
2023-10-05T13:12:21.444Z,2.58
2023-10-05T13:14:49.396Z,2.05
2023-10-05T13:17:17.308Z,2.38
2023-10-05T13:19:45.683Z,2.30
2023-10-05T13:22:13.493Z,2.40
2023-10-05T13:24:42.187Z,2.03
2023-10-05T13:27:10.187Z,2.03
2023-10-05T13:29:44.538Z,2.38
2023-10-05T13:32:13.979Z,1.80
2023-10-05T13:34:47.162Z,2.15
2023-10-05T13:37:15.396Z,2.60
2023-10-05T13:39:46.003Z,2.17
2023-10-05T13:42:19.677Z,2.03
2023-10-05T13:44:48.825Z,2.30
2023-10-05T13:47:16.896Z,1.88
2023-10-05T13:49:52.402Z,2.30
2023-10-05T13:52:21.910Z,2.15
2023-10-05T13:54:50.296Z,1.80
2023-10-05T13:57:18.018Z,1.90
2023-10-05T13:59:45.661Z,2.00
2023-10-05T14:02:14.740Z,1.67
2023-10-05T14:07:12.468Z,2.05
2023-10-05T14:09:45.686Z,1.60
2023-10-05T14:12:13.773Z,2.08
2023-10-05T14:14:41.474Z,1.90
2023-10-05T14:17:09.275Z,1.60
2023-10-05T14:19:38.442Z,1.63
2023-10-05T14:22:06.255Z,1.83
2023-10-05T14:24:35.093Z,1.80
2023-10-05T14:27:06.021Z,1.45
2023-10-05T14:29:37.393Z,1.50
2023-10-05T14:32:06.755Z,1.77
2023-10-05T14:34:35.486Z,1.98
2023-10-05T14:37:07.076Z,1.80
2023-10-05T14:39:35.293Z,1.67
2023-10-05T14:42:05.522Z,1.63
2023-10-05T14:44:36.472Z,2.00
2023-10-05T14:47:08.947Z,2.10
2023-10-05T14:49:36.849Z,1.63
2023-10-05T14:52:07.145Z,1.52
2023-10-05T14:54:34.944Z,1.80
2023-10-05T14:57:02.596Z,1.70
2023-10-05T14:59:30.303Z,1.70
2023-10-05T15:01:59.354Z,1.77
2023-10-05T15:04:27.213Z,1.52
2023-10-05T15:06:55.747Z,1.27
2023-10-05T15:09:26.930Z,1.70
2023-10-05T15:11:54.868Z,1.40
2023-10-05T15:14:23.369Z,1.15
2023-10-05T15:16:53.406Z,1.42
2023-10-05T15:19:21.754Z,1.65
2023-10-05T15:21:49.886Z,1.42
2023-10-05T15:24:17.949Z,1.60
2023-10-05T15:26:49.897Z,1.50
2023-10-05T15:29:17.977Z,1.52
2023-10-05T15:31:45.804Z,1.60
2023-10-05T15:34:13.839Z,1.65
2023-10-05T15:36:42.031Z,1.30
2023-10-05T15:39:11.257Z,1.70
2023-10-05T15:41:39.241Z,1.77
2023-10-05T15:44:09.144Z,1.27
2023-10-05T15:46:37.937Z,1.40
2023-10-05T15:49:06.033Z,1.58
2023-10-05T15:51:34.114Z,1.30
2023-10-05T15:54:03.633Z,1.20
2023-10-05T15:56:31.491Z,1.30
2023-10-05T15:59:00.423Z,1.40
2023-10-05T16:01:29.535Z,1.23
2023-10-05T16:03:58.214Z,1.20
2023-10-05T16:06:26.956Z,1.50
2023-10-05T16:08:58.334Z,1.35
2023-10-05T16:11:26.254Z,1.10
2023-10-05T16:13:53.880Z,1.30
2023-10-05T16:16:22.320Z,1.48
2023-10-05T16:18:51.371Z,1.88
2023-10-05T16:21:19.557Z,1.25
2023-10-05T16:23:47.239Z,1.40
2023-10-05T16:26:14.896Z,1.27
2023-10-05T16:28:42.591Z,1.38
2023-10-05T16:31:10.310Z,1.05
2023-10-05T16:33:38.187Z,1.17
2023-10-05T16:36:07.846Z,1.10
2023-10-05T16:38:35.524Z,1.40
2023-10-05T16:41:03.166Z,1.67
2023-10-05T16:43:30.840Z,1.38
2023-10-05T16:45:59.034Z,1.20
2023-10-05T16:48:27.753Z,1.10
2023-10-05T16:50:55.445Z,1.38
2023-10-05T16:53:26.786Z,1.20
2023-10-05T16:55:54.564Z,1.27
2023-10-05T16:58:22.377Z,1.40
2023-10-05T17:00:50.709Z,1.00
2023-10-05T17:03:19.045Z,1.05
2023-10-05T17:05:46.812Z,1.20
2023-10-05T17:08:14.450Z,1.30
2023-10-05T17:10:43.446Z,0.98
2023-10-05T17:13:11.112Z,1.30
2023-10-05T17:15:38.778Z,1.20
2023-10-05T17:18:07.520Z,1.17
2023-10-05T17:20:35.194Z,1.23
2023-10-05T17:23:03.554Z,1.00
2023-10-05T17:25:33.918Z,1.10
2023-10-05T17:28:04.578Z,1.10
2023-10-05T17:30:32.243Z,1.23
2023-10-05T17:33:00.032Z,0.93
2023-10-05T17:35:29.346Z,2.33
2023-10-05T17:37:57.762Z,3.47
2023-10-05T17:40:25.555Z,5.30
2023-10-05T17:42:53.732Z,2.35
2023-10-05T17:45:22.778Z,2.17
2023-10-05T17:47:52.323Z,2.03
2023-10-05T17:50:19.994Z,2.20
2023-10-05T17:52:47.914Z,1.65
2023-10-05T17:55:15.987Z,1.63
2023-10-05T17:57:43.906Z,1.77
2023-10-05T18:00:16.730Z,2.17
2023-10-05T18:02:48.216Z,1.77
2023-10-05T18:05:17.248Z,1.95
2023-10-05T18:07:45.317Z,1.63
2023-10-05T18:10:13.151Z,1.85
2023-10-05T18:12:40.884Z,1.80
2023-10-05T18:15:09.483Z,1.25
2023-10-05T18:17:37.472Z,1.67
2023-10-05T18:20:08.421Z,1.58
2023-10-05T18:22:36.121Z,1.70
2023-10-05T18:25:04.234Z,1.75
2023-10-05T18:27:32.062Z,1.50
2023-10-05T18:29:59.686Z,1.67
2023-10-05T18:32:27.436Z,1.90
2023-10-05T18:34:55.303Z,1.40
2023-10-05T18:37:24.406Z,1.77
2023-10-05T18:39:52.085Z,1.90
2023-10-05T18:42:19.918Z,1.98
2023-10-05T18:44:48.175Z,1.80
2023-10-05T18:47:15.957Z,2.30
2023-10-05T18:49:43.616Z,2.40
2023-10-05T18:52:11.558Z,2.40
2023-10-05T18:54:40.674Z,2.30
2023-10-05T18:57:08.673Z,2.53
2023-10-05T18:59:36.317Z,2.20
2023-10-05T19:02:04.246Z,2.47
2023-10-05T19:04:33.396Z,2.45
2023-10-05T19:07:01.121Z,2.75
2023-10-05T19:09:28.785Z,2.47
2023-10-05T19:11:58.014Z,2.80
2023-10-05T19:14:25.653Z,2.72
2023-10-05T19:16:53.805Z,2.40
2023-10-05T19:19:21.820Z,2.80
2023-10-05T19:21:49.721Z,2.85
2023-10-05T19:24:17.462Z,3.05
2023-10-05T19:26:49.152Z,2.72
2023-10-05T19:29:18.384Z,2.92
2023-10-05T19:31:46.424Z,2.90
2023-10-05T19:34:14.170Z,2.80
2023-10-05T19:36:41.828Z,3.00
2023-10-05T19:39:11.765Z,2.63
2023-10-05T19:41:39.672Z,2.92
2023-10-05T19:44:07.931Z,2.70
2023-10-05T19:46:37.642Z,2.90
2023-10-05T19:49:07.558Z,2.63
2023-10-05T19:51:35.557Z,2.80
2023-10-05T19:54:03.727Z,2.90
2023-10-05T19:56:37.509Z,2.90
2023-10-05T19:59:05.938Z,2.78
2023-10-05T20:01:33.797Z,3.00
2023-10-05T20:04:03.148Z,3.22
2023-10-05T20:06:31.529Z,3.03
2023-10-05T20:08:59.721Z,2.88
2023-10-05T20:11:27.820Z,2.88
2023-10-05T20:13:56.038Z,2.80
2023-10-05T20:16:24.021Z,3.03
2023-10-05T20:18:52.108Z,3.22
2023-10-05T20:21:22.409Z,3.13
2023-10-05T20:23:50.156Z,2.88
2023-10-05T20:26:21.670Z,2.80
2023-10-05T20:28:49.604Z,2.80
2023-10-05T20:31:17.385Z,3.08
2023-10-05T20:33:48.016Z,3.30
2023-10-05T20:36:17.923Z,3.50
2023-10-05T20:38:47.046Z,3.17
2023-10-05T20:41:15.279Z,2.95
2023-10-05T20:43:43.301Z,3.25
2023-10-05T20:46:12.016Z,3.28
2023-10-05T20:48:40.184Z,3.00
2023-10-05T20:51:08.604Z,3.22
2023-10-05T20:53:36.400Z,3.10
2023-10-05T20:56:11.725Z,3.70
2023-10-05T20:58:39.507Z,3.20
2023-10-05T21:01:07.531Z,3.33
2023-10-05T21:03:36.199Z,3.63
2023-10-05T21:06:05.740Z,3.67
2023-10-05T21:08:34.478Z,3.38
2023-10-05T21:11:03.365Z,3.75
2023-10-05T21:13:35.147Z,3.30
2023-10-05T21:16:03.505Z,3.17
2023-10-05T21:18:32.265Z,3.17
2023-10-05T21:21:00.245Z,3.25
2023-10-05T21:23:27.918Z,2.92
2023-10-05T21:25:55.622Z,2.92
2023-10-05T21:28:23.297Z,3.05
2023-10-05T21:30:52.352Z,3.40
2023-10-05T21:33:20.257Z,3.42
2023-10-05T21:35:48.459Z,3.92
2023-10-05T21:38:16.115Z,3.78
2023-10-05T21:40:44.049Z,3.38
2023-10-05T21:43:11.787Z,3.22
2023-10-05T21:45:39.489Z,3.05
2023-10-05T21:48:08.755Z,3.90
2023-10-05T21:50:36.498Z,3.50
2023-10-05T21:53:05.431Z,3.38
2023-10-05T21:55:33.381Z,3.25
2023-10-05T21:58:01.260Z,3.67
2023-10-05T22:00:49.431Z,3.35
2023-10-05T22:03:18.580Z,3.22
2023-10-05T22:05:47.234Z,3.90
2023-10-05T22:08:16.462Z,3.65
2023-10-05T22:10:45.848Z,3.45
2023-10-05T22:13:15.606Z,3.30
2023-10-05T22:15:43.758Z,3.42
2023-10-05T22:18:12.847Z,3.28
2023-10-05T22:20:42.234Z,3.20
2023-10-05T22:23:11.160Z,3.20
2023-10-05T22:26:03.519Z,3.20
2023-10-05T22:28:35.585Z,3.33
2023-10-05T22:31:32.190Z,3.42
2023-10-05T22:34:04.958Z,3.35
2023-10-05T22:36:58.907Z,3.30
2023-10-05T22:40:09.389Z,3.65
2023-10-05T22:46:20.763Z,3.35
2023-10-05T22:49:35.712Z,3.67
2023-10-05T22:52:14.525Z,3.08
2023-10-05T22:54:54.521Z,2.97
2023-10-05T22:57:30.230Z,3.03
2023-10-05T23:02:57.308Z,3.47
2023-10-05T23:05:28.990Z,2.85
2023-10-05T23:08:16.906Z,2.90
2023-10-05T23:10:47.796Z,2.78
2023-10-05T23:13:19.501Z,3.03
2023-10-05T23:15:52.498Z,2.42
2023-10-05T23:18:25.862Z,3.33
2023-10-05T23:20:57.838Z,3.05
2023-10-05T23:23:30.583Z,2.78
2023-10-05T23:26:01.127Z,3.10
2023-10-05T23:28:31.838Z,3.10
2023-10-05T23:31:10.891Z,2.55
2023-10-05T23:33:42.864Z,2.53
2023-10-05T23:36:17.320Z,2.70
2023-10-05T23:38:59.660Z,2.90
2023-10-05T23:41:29.527Z,2.60
2023-10-05T23:43:58.903Z,2.53
2023-10-05T23:46:29.360Z,2.42
2023-10-05T23:52:37.553Z,2.38
2023-10-05T23:55:57.016Z,2.60
2023-10-05T23:59:12.933Z,2.60
